sensor_id;sensor_type;location;lat;lon;timestamp;P1;durP1;ratioP1;P2;durP2;ratioP2
19257;SDS011;9763;48.780;9.212;2024-01-27T00:01:53;1.80;;;1.20;;
19257;SDS011;9763;48.780;9.212;2024-01-27T00:05:17;1.30;;;0.90;;
19257;SDS011;9763;48.780;9.212;2024-01-27T00:08:41;1.77;;;1.10;;
19257;SDS011;9763;48.780;9.212;2024-01-27T00:12:05;8.37;;;1.50;;
19257;SDS011;9763;48.780;9.212;2024-01-27T00:15:30;1.33;;;0.90;;
19257;SDS011;9763;48.780;9.212;2024-01-27T00:18:56;1.50;;;0.90;;
19257;SDS011;9763;48.780;9.212;2024-01-27T00:22:21;2.57;;;1.00;;
19257;SDS011;9763;48.780;9.212;2024-01-27T00:25:44;2.13;;;1.20;;
19257;SDS011;9763;48.780;9.212;2024-01-27T00:29:08;2.10;;;1.07;;
19257;SDS011;9763;48.780;9.212;2024-01-27T00:32:32;2.20;;;1.00;;
19257;SDS011;9763;48.780;9.212;2024-01-27T00:35:58;3.73;;;1.20;;
19257;SDS011;9763;48.780;9.212;2024-01-27T00:39:22;1.83;;;1.10;;
19257;SDS011;9763;48.780;9.212;2024-01-27T00:42:46;1.97;;;1.10;;
19257;SDS011;9763;48.780;9.212;2024-01-27T00:46:10;2.23;;;1.00;;
19257;SDS011;9763;48.780;9.212;2024-01-27T00:49:33;1.43;;;0.73;;
19257;SDS011;9763;48.780;9.212;2024-01-27T00:52:59;3.03;;;1.00;;
19257;SDS011;9763;48.780;9.212;2024-01-27T00:56:23;2.27;;;1.07;;
19257;SDS011;9763;48.780;9.212;2024-01-27T00:59:47;2.43;;;0.93;;
19257;SDS011;9763;48.780;9.212;2024-01-27T01:03:10;1.40;;;1.00;;
19257;SDS011;9763;48.780;9.212;2024-01-27T01:06:34;1.30;;;0.90;;
19257;SDS011;9763;48.780;9.212;2024-01-27T01:09:59;1.20;;;0.80;;
19257;SDS011;9763;48.780;9.212;2024-01-27T01:13:23;1.77;;;1.03;;
19257;SDS011;9763;48.780;9.212;2024-01-27T01:16:48;1.90;;;0.90;;
19257;SDS011;9763;48.780;9.212;2024-01-27T01:20:11;1.20;;;0.83;;
19257;SDS011;9763;48.780;9.212;2024-01-27T01:23:35;1.70;;;1.00;;
19257;SDS011;9763;48.780;9.212;2024-01-27T01:27:00;1.50;;;0.97;;
19257;SDS011;9763;48.780;9.212;2024-01-27T01:30:25;1.40;;;0.97;;
19257;SDS011;9763;48.780;9.212;2024-01-27T01:33:48;1.83;;;0.80;;
19257;SDS011;9763;48.780;9.212;2024-01-27T01:37:12;1.20;;;0.80;;
19257;SDS011;9763;48.780;9.212;2024-01-27T01:40:36;2.33;;;1.00;;
19257;SDS011;9763;48.780;9.212;2024-01-27T01:44:01;2.37;;;1.00;;
19257;SDS011;9763;48.780;9.212;2024-01-27T01:47:26;1.70;;;0.90;;
19257;SDS011;9763;48.780;9.212;2024-01-27T01:50:50;1.20;;;0.93;;
19257;SDS011;9763;48.780;9.212;2024-01-27T01:54:14;2.23;;;0.90;;
19257;SDS011;9763;48.780;9.212;2024-01-27T01:57:38;1.30;;;0.93;;
19257;SDS011;9763;48.780;9.212;2024-01-27T02:01:03;1.50;;;1.10;;
19257;SDS011;9763;48.780;9.212;2024-01-27T02:04:27;1.50;;;0.97;;
19257;SDS011;9763;48.780;9.212;2024-01-27T02:07:51;1.70;;;0.90;;
19257;SDS011;9763;48.780;9.212;2024-01-27T02:11:18;6.47;;;1.33;;
19257;SDS011;9763;48.780;9.212;2024-01-27T02:14:42;1.60;;;0.90;;
19257;SDS011;9763;48.780;9.212;2024-01-27T02:18:06;2.53;;;0.90;;
19257;SDS011;9763;48.780;9.212;2024-01-27T02:21:30;1.33;;;0.90;;
19257;SDS011;9763;48.780;9.212;2024-01-27T02:24:55;1.30;;;0.83;;
19257;SDS011;9763;48.780;9.212;2024-01-27T02:28:19;1.50;;;0.90;;
19257;SDS011;9763;48.780;9.212;2024-01-27T02:31:45;2.63;;;1.17;;
19257;SDS011;9763;48.780;9.212;2024-01-27T02:35:09;1.10;;;0.80;;
19257;SDS011;9763;48.780;9.212;2024-01-27T02:38:33;1.60;;;0.83;;
19257;SDS011;9763;48.780;9.212;2024-01-27T02:41:58;1.97;;;0.90;;
19257;SDS011;9763;48.780;9.212;2024-01-27T02:45:22;3.27;;;0.80;;
19257;SDS011;9763;48.780;9.212;2024-01-27T02:48:46;1.40;;;0.97;;
19257;SDS011;9763;48.780;9.212;2024-01-27T02:52:10;1.53;;;1.00;;
19257;SDS011;9763;48.780;9.212;2024-01-27T02:55:36;2.47;;;0.80;;
19257;SDS011;9763;48.780;9.212;2024-01-27T02:59:01;1.60;;;1.00;;
19257;SDS011;9763;48.780;9.212;2024-01-27T03:02:25;1.37;;;0.83;;
19257;SDS011;9763;48.780;9.212;2024-01-27T03:05:48;2.70;;;1.00;;
19257;SDS011;9763;48.780;9.212;2024-01-27T03:09:12;5.80;;;1.07;;
19257;SDS011;9763;48.780;9.212;2024-01-27T03:12:36;1.30;;;0.80;;
19257;SDS011;9763;48.780;9.212;2024-01-27T03:16:01;2.17;;;0.80;;
19257;SDS011;9763;48.780;9.212;2024-01-27T03:19:25;1.40;;;0.80;;
19257;SDS011;9763;48.780;9.212;2024-01-27T03:22:48;1.40;;;0.90;;
19257;SDS011;9763;48.780;9.212;2024-01-27T03:26:12;2.53;;;1.20;;
19257;SDS011;9763;48.780;9.212;2024-01-27T03:29:36;1.87;;;1.17;;
19257;SDS011;9763;48.780;9.212;2024-01-27T03:33:01;2.07;;;0.90;;
19257;SDS011;9763;48.780;9.212;2024-01-27T03:36:25;1.30;;;1.10;;
19257;SDS011;9763;48.780;9.212;2024-01-27T03:39:50;3.20;;;1.20;;
19257;SDS011;9763;48.780;9.212;2024-01-27T03:43:13;1.50;;;1.40;;
19257;SDS011;9763;48.780;9.212;2024-01-27T03:46:36;4.13;;;1.30;;
19257;SDS011;9763;48.780;9.212;2024-01-27T03:50:02;1.97;;;1.00;;
19257;SDS011;9763;48.780;9.212;2024-01-27T03:53:26;2.20;;;1.17;;
19257;SDS011;9763;48.780;9.212;2024-01-27T03:56:50;1.87;;;1.00;;
19257;SDS011;9763;48.780;9.212;2024-01-27T04:00:14;1.20;;;1.10;;
19257;SDS011;9763;48.780;9.212;2024-01-27T04:03:38;1.47;;;0.83;;
19257;SDS011;9763;48.780;9.212;2024-01-27T04:07:03;2.03;;;1.20;;
19257;SDS011;9763;48.780;9.212;2024-01-27T04:10:28;1.50;;;1.33;;
19257;SDS011;9763;48.780;9.212;2024-01-27T04:13:51;1.77;;;1.10;;
19257;SDS011;9763;48.780;9.212;2024-01-27T04:17:15;1.83;;;1.00;;
19257;SDS011;9763;48.780;9.212;2024-01-27T04:20:38;3.77;;;1.23;;
19257;SDS011;9763;48.780;9.212;2024-01-27T04:24:04;1.50;;;1.20;;
19257;SDS011;9763;48.780;9.212;2024-01-27T04:27:28;1.80;;;0.97;;
19257;SDS011;9763;48.780;9.212;2024-01-27T04:30:52;1.67;;;0.93;;
19257;SDS011;9763;48.780;9.212;2024-01-27T04:34:16;1.43;;;0.93;;
19257;SDS011;9763;48.780;9.212;2024-01-27T04:37:40;2.00;;;0.93;;
19257;SDS011;9763;48.780;9.212;2024-01-27T04:41:05;2.20;;;1.10;;
19257;SDS011;9763;48.780;9.212;2024-01-27T04:44:29;1.70;;;1.20;;
19257;SDS011;9763;48.780;9.212;2024-01-27T04:47:52;1.97;;;1.40;;
19257;SDS011;9763;48.780;9.212;2024-01-27T04:51:16;3.50;;;1.60;;
19257;SDS011;9763;48.780;9.212;2024-01-27T04:54:40;1.80;;;0.87;;
19257;SDS011;9763;48.780;9.212;2024-01-27T04:58:06;2.83;;;1.20;;
19257;SDS011;9763;48.780;9.212;2024-01-27T05:01:31;1.20;;;1.00;;
19257;SDS011;9763;48.780;9.212;2024-01-27T05:04:55;1.80;;;1.30;;
19257;SDS011;9763;48.780;9.212;2024-01-27T05:08:19;2.03;;;1.10;;
19257;SDS011;9763;48.780;9.212;2024-01-27T05:11:43;1.40;;;1.10;;
19257;SDS011;9763;48.780;9.212;2024-01-27T05:15:09;1.83;;;1.30;;
19257;SDS011;9763;48.780;9.212;2024-01-27T05:18:33;2.97;;;1.30;;
19257;SDS011;9763;48.780;9.212;2024-01-27T05:21:58;2.37;;;1.33;;
19257;SDS011;9763;48.780;9.212;2024-01-27T05:25:21;1.50;;;1.07;;
19257;SDS011;9763;48.780;9.212;2024-01-27T05:28:45;2.33;;;1.53;;
19257;SDS011;9763;48.780;9.212;2024-01-27T05:32:10;2.00;;;1.20;;
19257;SDS011;9763;48.780;9.212;2024-01-27T05:35:34;3.27;;;1.60;;
19257;SDS011;9763;48.780;9.212;2024-01-27T05:38:58;2.33;;;1.30;;
19257;SDS011;9763;48.780;9.212;2024-01-27T05:42:22;1.80;;;1.40;;
19257;SDS011;9763;48.780;9.212;2024-01-27T05:45:45;1.67;;;1.17;;
19257;SDS011;9763;48.780;9.212;2024-01-27T05:49:10;2.60;;;1.20;;
19257;SDS011;9763;48.780;9.212;2024-01-27T05:52:34;2.03;;;1.20;;
19257;SDS011;9763;48.780;9.212;2024-01-27T05:55:58;2.20;;;1.20;;
19257;SDS011;9763;48.780;9.212;2024-01-27T05:59:22;1.60;;;1.13;;
19257;SDS011;9763;48.780;9.212;2024-01-27T06:02:46;1.87;;;1.37;;
19257;SDS011;9763;48.780;9.212;2024-01-27T06:06:11;1.43;;;1.10;;
19257;SDS011;9763;48.780;9.212;2024-01-27T06:09:37;2.07;;;1.20;;
19257;SDS011;9763;48.780;9.212;2024-01-27T06:13:01;1.73;;;1.30;;
19257;SDS011;9763;48.780;9.212;2024-01-27T06:16:24;1.80;;;1.03;;
19257;SDS011;9763;48.780;9.212;2024-01-27T06:19:48;1.33;;;1.23;;
19257;SDS011;9763;48.780;9.212;2024-01-27T06:23:13;1.50;;;1.13;;
19257;SDS011;9763;48.780;9.212;2024-01-27T06:26:37;1.70;;;1.00;;
19257;SDS011;9763;48.780;9.212;2024-01-27T06:30:00;2.60;;;1.40;;
19257;SDS011;9763;48.780;9.212;2024-01-27T06:33:24;2.97;;;1.60;;
19257;SDS011;9763;48.780;9.212;2024-01-27T06:36:48;1.60;;;1.30;;
19257;SDS011;9763;48.780;9.212;2024-01-27T06:40:13;4.13;;;1.80;;
19257;SDS011;9763;48.780;9.212;2024-01-27T06:43:37;2.47;;;1.40;;
19257;SDS011;9763;48.780;9.212;2024-01-27T06:47:01;2.30;;;1.43;;
19257;SDS011;9763;48.780;9.212;2024-01-27T06:50:25;2.00;;;1.33;;
19257;SDS011;9763;48.780;9.212;2024-01-27T06:53:49;2.17;;;1.50;;
19257;SDS011;9763;48.780;9.212;2024-01-27T06:57:20;3.10;;;0.97;;
19257;SDS011;9763;48.780;9.212;2024-01-27T07:00:45;1.30;;;1.10;;
19257;SDS011;9763;48.780;9.212;2024-01-27T07:04:08;1.87;;;1.37;;
19257;SDS011;9763;48.780;9.212;2024-01-27T07:07:32;1.77;;;1.30;;
19257;SDS011;9763;48.780;9.212;2024-01-27T07:10:56;3.03;;;1.20;;
19257;SDS011;9763;48.780;9.212;2024-01-27T07:14:21;4.20;;;1.53;;
19257;SDS011;9763;48.780;9.212;2024-01-27T07:17:45;3.43;;;1.40;;
19257;SDS011;9763;48.780;9.212;2024-01-27T07:21:14;2.13;;;1.43;;
19257;SDS011;9763;48.780;9.212;2024-01-27T07:24:39;2.40;;;1.60;;
19257;SDS011;9763;48.780;9.212;2024-01-27T07:28:03;2.40;;;1.40;;
19257;SDS011;9763;48.780;9.212;2024-01-27T07:31:28;1.97;;;1.40;;
19257;SDS011;9763;48.780;9.212;2024-01-27T07:34:52;1.57;;;1.00;;
19257;SDS011;9763;48.780;9.212;2024-01-27T07:38:16;1.87;;;1.27;;
19257;SDS011;9763;48.780;9.212;2024-01-27T07:41:40;2.93;;;1.57;;
19257;SDS011;9763;48.780;9.212;2024-01-27T07:45:05;2.80;;;1.43;;
19257;SDS011;9763;48.780;9.212;2024-01-27T07:48:31;3.63;;;1.97;;
19257;SDS011;9763;48.780;9.212;2024-01-27T07:51:55;3.33;;;1.50;;
19257;SDS011;9763;48.780;9.212;2024-01-27T07:55:19;3.10;;;1.70;;
19257;SDS011;9763;48.780;9.212;2024-01-27T07:58:42;2.70;;;2.17;;
19257;SDS011;9763;48.780;9.212;2024-01-27T08:02:06;2.50;;;1.97;;
19257;SDS011;9763;48.780;9.212;2024-01-27T08:05:31;4.40;;;2.37;;
19257;SDS011;9763;48.780;9.212;2024-01-27T08:08:54;3.27;;;2.13;;
19257;SDS011;9763;48.780;9.212;2024-01-27T08:12:18;2.43;;;2.10;;
19257;SDS011;9763;48.780;9.212;2024-01-27T08:15:42;2.30;;;2.10;;
19257;SDS011;9763;48.780;9.212;2024-01-27T08:19:05;2.47;;;1.60;;
19257;SDS011;9763;48.780;9.212;2024-01-27T08:22:30;2.87;;;1.63;;
19257;SDS011;9763;48.780;9.212;2024-01-27T08:25:54;3.67;;;2.40;;
19257;SDS011;9763;48.780;9.212;2024-01-27T08:29:17;2.30;;;1.50;;
19257;SDS011;9763;48.780;9.212;2024-01-27T08:32:41;3.10;;;1.73;;
19257;SDS011;9763;48.780;9.212;2024-01-27T08:36:05;2.33;;;2.03;;
19257;SDS011;9763;48.780;9.212;2024-01-27T08:39:30;2.90;;;1.80;;
19257;SDS011;9763;48.780;9.212;2024-01-27T08:42:54;2.30;;;1.80;;
19257;SDS011;9763;48.780;9.212;2024-01-27T08:46:18;2.30;;;2.10;;
19257;SDS011;9763;48.780;9.212;2024-01-27T08:49:43;2.43;;;1.30;;
19257;SDS011;9763;48.780;9.212;2024-01-27T08:53:07;3.77;;;1.80;;
19257;SDS011;9763;48.780;9.212;2024-01-27T08:56:32;1.90;;;1.77;;
19257;SDS011;9763;48.780;9.212;2024-01-27T08:59:56;2.33;;;2.03;;
19257;SDS011;9763;48.780;9.212;2024-01-27T09:03:19;2.30;;;2.10;;
19257;SDS011;9763;48.780;9.212;2024-01-27T09:06:43;3.97;;;2.20;;
19257;SDS011;9763;48.780;9.212;2024-01-27T09:10:08;3.10;;;2.00;;
19257;SDS011;9763;48.780;9.212;2024-01-27T09:13:35;3.10;;;2.40;;
19257;SDS011;9763;48.780;9.212;2024-01-27T09:16:59;2.20;;;2.00;;
19257;SDS011;9763;48.780;9.212;2024-01-27T09:20:22;2.30;;;2.10;;
19257;SDS011;9763;48.780;9.212;2024-01-27T09:23:46;4.40;;;2.03;;
19257;SDS011;9763;48.780;9.212;2024-01-27T09:27:09;2.60;;;2.40;;
19257;SDS011;9763;48.780;9.212;2024-01-27T09:30:34;3.33;;;3.03;;
19257;SDS011;9763;48.780;9.212;2024-01-27T09:34:00;2.90;;;2.47;;
19257;SDS011;9763;48.780;9.212;2024-01-27T09:37:25;2.40;;;2.20;;
19257;SDS011;9763;48.780;9.212;2024-01-27T09:40:50;2.10;;;1.90;;
19257;SDS011;9763;48.780;9.212;2024-01-27T09:44:14;3.00;;;2.70;;
19257;SDS011;9763;48.780;9.212;2024-01-27T09:47:43;1.90;;;1.70;;
19257;SDS011;9763;48.780;9.212;2024-01-27T09:51:09;3.53;;;2.60;;
19257;SDS011;9763;48.780;9.212;2024-01-27T09:54:34;2.20;;;2.00;;
19257;SDS011;9763;48.780;9.212;2024-01-27T09:57:58;3.53;;;2.27;;
19257;SDS011;9763;48.780;9.212;2024-01-27T10:01:22;3.70;;;2.63;;
19257;SDS011;9763;48.780;9.212;2024-01-27T10:04:51;4.00;;;2.17;;
19257;SDS011;9763;48.780;9.212;2024-01-27T10:08:17;3.00;;;2.10;;
19257;SDS011;9763;48.780;9.212;2024-01-27T10:11:42;2.57;;;2.20;;
19257;SDS011;9763;48.780;9.212;2024-01-27T10:15:18;3.50;;;1.90;;
19257;SDS011;9763;48.780;9.212;2024-01-27T10:18:43;4.20;;;2.20;;
19257;SDS011;9763;48.780;9.212;2024-01-27T10:22:08;2.10;;;1.90;;
19257;SDS011;9763;48.780;9.212;2024-01-27T10:25:32;3.70;;;2.20;;
19257;SDS011;9763;48.780;9.212;2024-01-27T10:29:00;2.77;;;2.50;;
19257;SDS011;9763;48.780;9.212;2024-01-27T10:32:24;2.87;;;2.20;;
19257;SDS011;9763;48.780;9.212;2024-01-27T10:35:57;4.97;;;2.00;;
19257;SDS011;9763;48.780;9.212;2024-01-27T10:39:23;2.93;;;1.90;;
19257;SDS011;9763;48.780;9.212;2024-01-27T10:42:47;2.10;;;1.90;;
19257;SDS011;9763;48.780;9.212;2024-01-27T10:46:24;2.70;;;2.20;;
19257;SDS011;9763;48.780;9.212;2024-01-27T10:49:51;2.33;;;2.13;;
19257;SDS011;9763;48.780;9.212;2024-01-27T10:53:20;4.97;;;2.50;;
19257;SDS011;9763;48.780;9.212;2024-01-27T10:56:50;2.27;;;1.90;;
19257;SDS011;9763;48.780;9.212;2024-01-27T11:00:17;4.53;;;2.60;;
19257;SDS011;9763;48.780;9.212;2024-01-27T11:03:42;3.27;;;2.33;;
19257;SDS011;9763;48.780;9.212;2024-01-27T11:07:07;2.47;;;1.87;;
19257;SDS011;9763;48.780;9.212;2024-01-27T11:10:31;3.40;;;2.47;;
19257;SDS011;9763;48.780;9.212;2024-01-27T11:13:59;4.13;;;2.10;;
19257;SDS011;9763;48.780;9.212;2024-01-27T11:17:22;3.17;;;2.30;;
19257;SDS011;9763;48.780;9.212;2024-01-27T11:20:46;3.10;;;2.03;;
19257;SDS011;9763;48.780;9.212;2024-01-27T11:24:14;2.47;;;2.00;;
19257;SDS011;9763;48.780;9.212;2024-01-27T11:27:39;4.30;;;2.37;;
19257;SDS011;9763;48.780;9.212;2024-01-27T11:31:08;3.53;;;2.20;;
19257;SDS011;9763;48.780;9.212;2024-01-27T11:34:42;3.90;;;2.27;;
19257;SDS011;9763;48.780;9.212;2024-01-27T11:38:07;4.13;;;1.90;;
19257;SDS011;9763;48.780;9.212;2024-01-27T11:41:31;3.60;;;1.83;;
19257;SDS011;9763;48.780;9.212;2024-01-27T11:44:55;3.80;;;2.30;;
19257;SDS011;9763;48.780;9.212;2024-01-27T11:48:20;3.40;;;1.67;;
19257;SDS011;9763;48.780;9.212;2024-01-27T11:51:44;2.90;;;2.23;;
19257;SDS011;9763;48.780;9.212;2024-01-27T11:55:08;3.93;;;2.30;;
19257;SDS011;9763;48.780;9.212;2024-01-27T11:58:31;2.67;;;1.43;;
19257;SDS011;9763;48.780;9.212;2024-01-27T12:01:56;2.40;;;1.87;;
19257;SDS011;9763;48.780;9.212;2024-01-27T12:05:21;2.53;;;1.90;;
19257;SDS011;9763;48.780;9.212;2024-01-27T12:08:46;2.00;;;1.80;;
19257;SDS011;9763;48.780;9.212;2024-01-27T12:12:11;2.80;;;2.10;;
19257;SDS011;9763;48.780;9.212;2024-01-27T12:15:36;3.27;;;2.00;;
19257;SDS011;9763;48.780;9.212;2024-01-27T12:19:00;2.60;;;2.00;;
19257;SDS011;9763;48.780;9.212;2024-01-27T12:22:26;2.60;;;1.80;;
19257;SDS011;9763;48.780;9.212;2024-01-27T12:25:54;3.00;;;2.00;;
19257;SDS011;9763;48.780;9.212;2024-01-27T12:29:19;2.57;;;1.80;;
19257;SDS011;9763;48.780;9.212;2024-01-27T12:32:43;2.93;;;2.00;;
19257;SDS011;9763;48.780;9.212;2024-01-27T12:36:07;3.03;;;1.90;;
19257;SDS011;9763;48.780;9.212;2024-01-27T12:39:33;2.40;;;1.90;;
19257;SDS011;9763;48.780;9.212;2024-01-27T12:42:57;1.63;;;1.43;;
19257;SDS011;9763;48.780;9.212;2024-01-27T12:46:21;3.37;;;1.87;;
19257;SDS011;9763;48.780;9.212;2024-01-27T12:49:44;2.40;;;1.63;;
19257;SDS011;9763;48.780;9.212;2024-01-27T12:53:09;1.87;;;1.50;;
19257;SDS011;9763;48.780;9.212;2024-01-27T12:56:34;2.70;;;1.57;;
19257;SDS011;9763;48.780;9.212;2024-01-27T12:59:57;5.80;;;1.60;;
19257;SDS011;9763;48.780;9.212;2024-01-27T13:03:22;2.07;;;1.30;;
19257;SDS011;9763;48.780;9.212;2024-01-27T13:06:45;3.17;;;1.70;;
19257;SDS011;9763;48.780;9.212;2024-01-27T13:10:09;1.93;;;1.70;;
19257;SDS011;9763;48.780;9.212;2024-01-27T13:13:34;5.07;;;1.90;;
19257;SDS011;9763;48.780;9.212;2024-01-27T13:16:57;1.90;;;1.70;;
19257;SDS011;9763;48.780;9.212;2024-01-27T13:20:21;2.10;;;1.50;;
19257;SDS011;9763;48.780;9.212;2024-01-27T13:23:45;1.90;;;1.40;;
19257;SDS011;9763;48.780;9.212;2024-01-27T13:27:08;5.60;;;1.70;;
19257;SDS011;9763;48.780;9.212;2024-01-27T13:30:34;4.50;;;1.63;;
19257;SDS011;9763;48.780;9.212;2024-01-27T13:33:59;1.77;;;1.43;;
19257;SDS011;9763;48.780;9.212;2024-01-27T13:37:24;1.97;;;1.20;;
19257;SDS011;9763;48.780;9.212;2024-01-27T13:40:48;1.60;;;1.40;;
19257;SDS011;9763;48.780;9.212;2024-01-27T13:44:11;2.33;;;1.33;;
19257;SDS011;9763;48.780;9.212;2024-01-27T13:47:36;1.87;;;1.40;;
19257;SDS011;9763;48.780;9.212;2024-01-27T13:51:00;3.10;;;1.40;;
19257;SDS011;9763;48.780;9.212;2024-01-27T13:54:24;1.70;;;1.40;;
19257;SDS011;9763;48.780;9.212;2024-01-27T13:57:48;2.60;;;1.50;;
19257;SDS011;9763;48.780;9.212;2024-01-27T14:01:13;1.83;;;1.20;;
19257;SDS011;9763;48.780;9.212;2024-01-27T14:04:39;2.37;;;1.30;;
19257;SDS011;9763;48.780;9.212;2024-01-27T14:08:02;3.33;;;1.47;;
19257;SDS011;9763;48.780;9.212;2024-01-27T14:11:28;2.50;;;1.50;;
19257;SDS011;9763;48.780;9.212;2024-01-27T14:14:52;2.43;;;1.57;;
19257;SDS011;9763;48.780;9.212;2024-01-27T14:18:16;3.10;;;1.83;;
19257;SDS011;9763;48.780;9.212;2024-01-27T14:21:45;3.20;;;1.40;;
19257;SDS011;9763;48.780;9.212;2024-01-27T14:25:09;2.63;;;1.63;;
19257;SDS011;9763;48.780;9.212;2024-01-27T14:28:32;2.23;;;1.73;;
19257;SDS011;9763;48.780;9.212;2024-01-27T14:31:57;2.03;;;1.83;;
19257;SDS011;9763;48.780;9.212;2024-01-27T14:35:20;3.63;;;2.30;;
19257;SDS011;9763;48.780;9.212;2024-01-27T14:38:45;3.13;;;2.17;;
19257;SDS011;9763;48.780;9.212;2024-01-27T14:42:10;2.73;;;2.33;;
19257;SDS011;9763;48.780;9.212;2024-01-27T14:45:34;2.30;;;2.00;;
19257;SDS011;9763;48.780;9.212;2024-01-27T14:48:59;2.60;;;2.23;;
19257;SDS011;9763;48.780;9.212;2024-01-27T14:52:23;3.90;;;2.60;;
19257;SDS011;9763;48.780;9.212;2024-01-27T14:55:48;5.37;;;2.40;;
19257;SDS011;9763;48.780;9.212;2024-01-27T14:59:12;4.20;;;2.10;;
19257;SDS011;9763;48.780;9.212;2024-01-27T15:02:36;2.00;;;1.70;;
19257;SDS011;9763;48.780;9.212;2024-01-27T15:06:00;2.17;;;1.70;;
19257;SDS011;9763;48.780;9.212;2024-01-27T15:09:25;3.33;;;2.10;;
19257;SDS011;9763;48.780;9.212;2024-01-27T15:12:50;2.23;;;1.70;;
19257;SDS011;9763;48.780;9.212;2024-01-27T15:16:14;2.60;;;1.80;;
19257;SDS011;9763;48.780;9.212;2024-01-27T15:19:38;2.63;;;2.20;;
19257;SDS011;9763;48.780;9.212;2024-01-27T15:23:03;4.57;;;2.07;;
19257;SDS011;9763;48.780;9.212;2024-01-27T15:26:27;3.30;;;1.90;;
19257;SDS011;9763;48.780;9.212;2024-01-27T15:29:52;3.33;;;2.27;;
19257;SDS011;9763;48.780;9.212;2024-01-27T15:33:18;2.70;;;1.90;;
19257;SDS011;9763;48.780;9.212;2024-01-27T15:36:41;2.10;;;1.90;;
19257;SDS011;9763;48.780;9.212;2024-01-27T15:40:07;2.43;;;1.70;;
19257;SDS011;9763;48.780;9.212;2024-01-27T15:43:32;1.80;;;1.40;;
19257;SDS011;9763;48.780;9.212;2024-01-27T15:46:58;1.70;;;1.43;;
19257;SDS011;9763;48.780;9.212;2024-01-27T15:50:23;1.80;;;1.33;;
19257;SDS011;9763;48.780;9.212;2024-01-27T15:53:49;4.00;;;1.57;;
19257;SDS011;9763;48.780;9.212;2024-01-27T15:57:13;3.53;;;1.40;;
19257;SDS011;9763;48.780;9.212;2024-01-27T16:00:38;4.13;;;1.30;;
19257;SDS011;9763;48.780;9.212;2024-01-27T16:04:03;1.70;;;1.30;;
19257;SDS011;9763;48.780;9.212;2024-01-27T16:07:26;3.77;;;1.40;;
19257;SDS011;9763;48.780;9.212;2024-01-27T16:10:50;1.47;;;1.00;;
19257;SDS011;9763;48.780;9.212;2024-01-27T16:14:15;2.87;;;1.37;;
19257;SDS011;9763;48.780;9.212;2024-01-27T16:17:39;2.47;;;1.40;;
19257;SDS011;9763;48.780;9.212;2024-01-27T16:21:05;1.63;;;1.40;;
19257;SDS011;9763;48.780;9.212;2024-01-27T16:24:28;2.27;;;1.20;;
19257;SDS011;9763;48.780;9.212;2024-01-27T16:27:52;2.07;;;1.17;;
19257;SDS011;9763;48.780;9.212;2024-01-27T16:31:15;1.20;;;0.97;;
19257;SDS011;9763;48.780;9.212;2024-01-27T16:34:39;1.40;;;1.10;;
19257;SDS011;9763;48.780;9.212;2024-01-27T16:38:05;1.47;;;1.00;;
19257;SDS011;9763;48.780;9.212;2024-01-27T16:41:29;2.50;;;1.07;;
19257;SDS011;9763;48.780;9.212;2024-01-27T16:44:52;1.90;;;1.13;;
19257;SDS011;9763;48.780;9.212;2024-01-27T16:48:16;2.60;;;1.87;;
19257;SDS011;9763;48.780;9.212;2024-01-27T16:51:40;6.37;;;3.57;;
19257;SDS011;9763;48.780;9.212;2024-01-27T16:55:05;6.30;;;3.60;;
19257;SDS011;9763;48.780;9.212;2024-01-27T16:58:30;4.73;;;2.60;;
19257;SDS011;9763;48.780;9.212;2024-01-27T17:01:54;3.40;;;2.20;;
19257;SDS011;9763;48.780;9.212;2024-01-27T17:05:19;3.40;;;2.03;;
19257;SDS011;9763;48.780;9.212;2024-01-27T17:08:42;4.17;;;1.60;;
19257;SDS011;9763;48.780;9.212;2024-01-27T17:12:09;4.40;;;2.00;;
19257;SDS011;9763;48.780;9.212;2024-01-27T17:15:33;1.73;;;1.50;;
19257;SDS011;9763;48.780;9.212;2024-01-27T17:18:57;3.60;;;1.30;;
19257;SDS011;9763;48.780;9.212;2024-01-27T17:22:22;2.07;;;1.27;;
19257;SDS011;9763;48.780;9.212;2024-01-27T17:25:47;1.67;;;1.50;;
19257;SDS011;9763;48.780;9.212;2024-01-27T17:29:13;1.90;;;1.80;;
19257;SDS011;9763;48.780;9.212;2024-01-27T17:32:37;2.40;;;1.63;;
19257;SDS011;9763;48.780;9.212;2024-01-27T17:36:04;1.90;;;1.70;;
19257;SDS011;9763;48.780;9.212;2024-01-27T17:39:28;2.00;;;1.50;;
19257;SDS011;9763;48.780;9.212;2024-01-27T17:42:52;2.47;;;1.70;;
19257;SDS011;9763;48.780;9.212;2024-01-27T17:46:17;2.90;;;1.87;;
19257;SDS011;9763;48.780;9.212;2024-01-27T17:49:42;1.67;;;1.43;;
19257;SDS011;9763;48.780;9.212;2024-01-27T17:53:06;2.53;;;2.10;;
19257;SDS011;9763;48.780;9.212;2024-01-27T17:56:29;3.40;;;2.20;;
19257;SDS011;9763;48.780;9.212;2024-01-27T17:59:53;2.10;;;1.80;;
19257;SDS011;9763;48.780;9.212;2024-01-27T18:03:19;2.60;;;2.20;;
19257;SDS011;9763;48.780;9.212;2024-01-27T18:06:44;3.10;;;1.90;;
19257;SDS011;9763;48.780;9.212;2024-01-27T18:10:07;4.70;;;2.70;;
19257;SDS011;9763;48.780;9.212;2024-01-27T18:13:31;3.13;;;1.90;;
19257;SDS011;9763;48.780;9.212;2024-01-27T18:16:55;2.43;;;1.73;;
19257;SDS011;9763;48.780;9.212;2024-01-27T18:20:19;5.30;;;2.13;;
19257;SDS011;9763;48.780;9.212;2024-01-27T18:23:44;2.50;;;2.30;;
19257;SDS011;9763;48.780;9.212;2024-01-27T18:27:07;2.13;;;1.80;;
19257;SDS011;9763;48.780;9.212;2024-01-27T18:30:32;3.50;;;1.97;;
19257;SDS011;9763;48.780;9.212;2024-01-27T18:33:55;1.70;;;1.40;;
19257;SDS011;9763;48.780;9.212;2024-01-27T18:37:21;4.53;;;2.60;;
19257;SDS011;9763;48.780;9.212;2024-01-27T18:40:44;4.17;;;2.27;;
19257;SDS011;9763;48.780;9.212;2024-01-27T18:44:08;4.30;;;3.07;;
19257;SDS011;9763;48.780;9.212;2024-01-27T18:47:34;3.43;;;3.13;;
19257;SDS011;9763;48.780;9.212;2024-01-27T18:51:02;5.87;;;3.67;;
19257;SDS011;9763;48.780;9.212;2024-01-27T18:54:29;4.80;;;3.77;;
19257;SDS011;9763;48.780;9.212;2024-01-27T18:57:52;4.97;;;3.40;;
19257;SDS011;9763;48.780;9.212;2024-01-27T19:01:16;4.90;;;4.03;;
19257;SDS011;9763;48.780;9.212;2024-01-27T19:04:40;4.30;;;3.20;;
19257;SDS011;9763;48.780;9.212;2024-01-27T19:08:04;4.10;;;2.57;;
19257;SDS011;9763;48.780;9.212;2024-01-27T19:11:30;3.00;;;2.40;;
19257;SDS011;9763;48.780;9.212;2024-01-27T19:14:58;4.03;;;2.47;;
19257;SDS011;9763;48.780;9.212;2024-01-27T19:18:24;2.40;;;2.20;;
19257;SDS011;9763;48.780;9.212;2024-01-27T19:21:47;2.77;;;1.60;;
19257;SDS011;9763;48.780;9.212;2024-01-27T19:25:11;1.93;;;1.60;;
19257;SDS011;9763;48.780;9.212;2024-01-27T19:28:38;2.60;;;1.60;;
19257;SDS011;9763;48.780;9.212;2024-01-27T19:32:01;1.80;;;1.70;;
19257;SDS011;9763;48.780;9.212;2024-01-27T19:35:26;1.90;;;1.70;;
19257;SDS011;9763;48.780;9.212;2024-01-27T19:38:50;2.00;;;1.60;;
19257;SDS011;9763;48.780;9.212;2024-01-27T19:42:14;3.50;;;2.70;;
19257;SDS011;9763;48.780;9.212;2024-01-27T19:45:40;3.80;;;3.20;;
19257;SDS011;9763;48.780;9.212;2024-01-27T19:49:04;3.93;;;2.60;;
19257;SDS011;9763;48.780;9.212;2024-01-27T19:52:28;5.67;;;3.23;;
19257;SDS011;9763;48.780;9.212;2024-01-27T19:55:52;3.43;;;3.10;;
19257;SDS011;9763;48.780;9.212;2024-01-27T19:59:16;3.30;;;2.93;;
19257;SDS011;9763;48.780;9.212;2024-01-27T20:02:41;3.00;;;2.70;;
19257;SDS011;9763;48.780;9.212;2024-01-27T20:06:05;2.80;;;2.43;;
19257;SDS011;9763;48.780;9.212;2024-01-27T20:09:28;4.10;;;2.77;;
19257;SDS011;9763;48.780;9.212;2024-01-27T20:12:52;2.10;;;1.80;;
19257;SDS011;9763;48.780;9.212;2024-01-27T20:16:18;2.33;;;1.70;;
19257;SDS011;9763;48.780;9.212;2024-01-27T20:19:44;3.27;;;2.20;;
19257;SDS011;9763;48.780;9.212;2024-01-27T20:23:09;6.50;;;2.73;;
19257;SDS011;9763;48.780;9.212;2024-01-27T20:26:33;4.87;;;2.87;;
19257;SDS011;9763;48.780;9.212;2024-01-27T20:29:59;3.40;;;3.00;;
19257;SDS011;9763;48.780;9.212;2024-01-27T20:33:23;4.43;;;3.20;;
19257;SDS011;9763;48.780;9.212;2024-01-27T20:36:59;2.90;;;2.60;;
19257;SDS011;9763;48.780;9.212;2024-01-27T20:40:23;4.20;;;3.80;;
19257;SDS011;9763;48.780;9.212;2024-01-27T20:43:48;6.63;;;3.90;;
19257;SDS011;9763;48.780;9.212;2024-01-27T20:47:12;3.67;;;3.20;;
19257;SDS011;9763;48.780;9.212;2024-01-27T20:50:36;3.60;;;2.60;;